Home   Weather   United Kingdom   Sheffield   Past weeks
Flag for United Kingdom

Past Weather in Sheffield, England, United Kingdom — Yesterday and Last 2 Weeks

Currently: 36 °F. Chilly. (Weather station: Manchester Airport, United Kingdom). See more current weather

Past Weather in Sheffield — Graph

°F

Sheffield Temperature Yesterday

Maximum temperature yesterday: 54 °F (at 4:20 pm)
Minimum temperature yesterday: 28 °F (at 4:20 am)
Average temperature yesterday: 42 °F

High & Low Weather Summary for the Past Weeks

 TemperatureHumidityPressure
High55 °F (Apr 4, 1:50 pm)100% (Apr 4, 2:20 am)30.57 "Hg (Apr 4, 2:20 am)
Low25 °F (Apr 7, 12:20 am)26% (Apr 5, 12:20 pm)29.86 "Hg (Apr 8, 11:20 pm)
Average41 °F68%30.27 "Hg
* Reported Apr 1 6:20 am — Apr 16 6:50 am, Sheffield. Weather by CustomWeather, © 2021

Note: Actual official high and low records may vary slightly from our data, if they occured in-between our weather recording intervals... More about our weather records

Sheffield Weather History for the Previous 24 Hours

Scroll right to see more
 ConditionsComfort  
Time TempWeatherWind HumidityBarometerVisibility
6:50 am
Fri, Apr 16
34 °FChilly.3 mph81%30.48 "HgN/A
6:20 am30 °FChilly.3 mph86%30.48 "HgN/A
5:50 am30 °FChilly.5 mph86%30.48 "HgN/A
5:20 am30 °FChilly.3 mph86%30.48 "HgN/A
4:50 am30 °FChilly.3 mph86%30.48 "HgN/A
4:20 am32 °FChilly.1 mph80%30.48 "HgN/A
3:50 am34 °FChilly.1 mph75%30.48 "HgN/A
3:20 am36 °FChilly.1 mph70%30.48 "HgN/A
2:50 am34 °FChilly.2 mph75%30.48 "HgN/A
2:20 am36 °FChilly.1 mph75%30.48 "HgN/A
1:50 am36 °FChilly.3 mph75%30.48 "HgN/A
1:20 am37 °FChilly.3 mph70%30.48 "HgN/A
12:50 am34 °FChilly.3 mph81%30.48 "HgN/A
12:20 am36 °FChilly.1 mph75%30.48 "HgN/A
11:50 pm
Thu, Apr 15
39 °FChilly.2 mph70%30.48 "HgN/A
11:20 pm39 °FChilly.2 mph70%30.48 "HgN/A
10:50 pm41 °FQuite cool.1 mph66%30.51 "HgN/A
10:20 pm43 °FQuite cool.3 mph61%30.51 "HgN/A
9:50 pm43 °FQuite cool.2 mph61%30.51 "HgN/A
9:20 pm43 °FQuite cool.3 mph61%30.51 "HgN/A
8:50 pm46 °FCool.2 mph53%30.51 "HgN/A
8:20 pm46 °FCool.2 mph53%30.48 "HgN/A
7:50 pm48 °FCool.5 mph50%30.48 "HgN/A
7:20 pm50 °FCool.5 mph43%30.48 "HgN/A
6:50 pm50 °FCool.2 mph43%30.48 "HgN/A
6:20 pm50 °FCool.5 mph43%30.48 "HgN/A
5:50 pm52 °FCool.3 mph38%30.48 "HgN/A
5:20 pm52 °FCool.3 mph38%30.48 "HgN/A
4:50 pm52 °FCool.3 mph38%30.48 "HgN/A
4:20 pm54 °FCool.2 mph35%30.51 "HgN/A
3:50 pm52 °FCool.6 mph38%30.51 "HgN/A
3:20 pm52 °FCool.5 mph38%30.51 "HgN/A
2:50 pm52 °FCool.5 mph38%30.51 "HgN/A
2:20 pm52 °FCool.5 mph38%30.54 "HgN/A
1:50 pm52 °FCool.7 mph41%30.54 "HgN/A
1:20 pm50 °FPassing clouds.3 mph50%30.54 "HgN/A
12:50 pm50 °FPassing clouds.5 mph47%30.54 "HgN/A
12:20 pm48 °FCool.2 mph50%30.54 "HgN/A
11:50 am48 °FCool.3 mph50%30.57 "HgN/A
11:20 am48 °FCool.5 mph50%30.57 "HgN/A
10:50 am46 °FCool.5 mph53%30.57 "HgN/A
10:20 am45 °FQuite cool.3 mph57%30.57 "HgN/A
9:50 am45 °FQuite cool.3 mph53%30.57 "HgN/A
9:20 am43 °FQuite cool.3 mph66%30.57 "HgN/A
8:50 am41 °FQuite cool.3 mph76%30.57 "HgN/A
8:20 am39 °FChilly.3 mph75%30.57 "HgN/A
Weather by CustomWeather, © 2021

See weather overview